createdAt,value
2022-11-28T00:00:05.450Z,2.10
2022-11-28T00:02:32.942Z,2.10
2022-11-28T00:04:59.734Z,2.20
2022-11-28T00:07:26.699Z,2.20
2022-11-28T00:09:53.654Z,2.20
2022-11-28T00:12:20.439Z,2.20
2022-11-28T00:14:47.135Z,2.20
2022-11-28T00:17:13.833Z,2.20
2022-11-28T00:19:40.538Z,2.20
2022-11-28T00:22:07.322Z,2.10
2022-11-28T00:24:34.005Z,2.10
2022-11-28T00:27:00.714Z,2.10
2022-11-28T00:29:27.419Z,2.10
2022-11-28T00:31:54.405Z,2.10
2022-11-28T00:34:21.153Z,2.10
2022-11-28T00:36:48.181Z,2.10
2022-11-28T00:39:16.418Z,2.10
2022-11-28T00:41:43.957Z,2.10
2022-11-28T00:44:11.640Z,2.10
2022-11-28T00:46:38.712Z,2.10
2022-11-28T00:49:05.749Z,2.10
2022-11-28T00:51:34.211Z,2.20
2022-11-28T00:54:02.411Z,2.20
2022-11-28T00:56:33.387Z,2.10
2022-11-28T00:59:00.544Z,2.10
2022-11-28T01:01:32.781Z,2.10
2022-11-28T01:04:02.201Z,2.00
2022-11-28T01:06:32.201Z,2.00
2022-11-28T01:09:00.846Z,2.00
2022-11-28T01:11:28.621Z,2.00
2022-11-28T01:13:57.461Z,2.00
2022-11-28T01:16:24.945Z,2.00
2022-11-28T01:18:52.039Z,2.00
2022-11-28T01:21:19.701Z,2.00
2022-11-28T01:23:46.529Z,1.90
2022-11-28T01:26:19.529Z,1.90
2022-11-28T01:28:46.844Z,2.00
2022-11-28T01:31:16.550Z,2.00
2022-11-28T01:33:43.875Z,1.90
2022-11-28T01:36:12.466Z,1.90
2022-11-28T01:38:39.334Z,1.90
2022-11-28T01:41:06.802Z,1.90
2022-11-28T01:43:34.469Z,1.90
2022-11-28T01:46:03.329Z,1.90
2022-11-28T01:48:37.506Z,2.00
2022-11-28T01:51:09.008Z,1.90
2022-11-28T01:53:41.162Z,1.90
2022-11-28T01:56:14.509Z,1.90
2022-11-28T01:58:43.295Z,1.90
2022-11-28T02:01:11.280Z,1.80
2022-11-28T02:03:47.405Z,1.80
2022-11-28T02:06:17.124Z,1.80
2022-11-28T02:08:43.928Z,1.80
2022-11-28T02:11:24.288Z,1.80
2022-11-28T02:14:32.051Z,1.70
2022-11-28T02:17:34.694Z,1.70
2022-11-28T02:20:15.345Z,1.70
2022-11-28T02:23:03.337Z,1.70
2022-11-28T02:25:36.856Z,1.60
2022-11-28T02:28:26.212Z,1.60
2022-11-28T02:31:19.577Z,1.60
2022-11-28T02:33:51.725Z,1.60
2022-11-28T02:36:33.967Z,1.70
2022-11-28T02:39:45.189Z,1.80
2022-11-28T02:42:20.142Z,1.80
2022-11-28T02:45:07.642Z,1.80
2022-11-28T02:47:39.710Z,1.80
2022-11-28T02:50:19.221Z,1.80
2022-11-28T02:52:50.844Z,1.80
2022-11-28T02:55:18.523Z,1.60
2022-11-28T02:57:51.539Z,1.60
2022-11-28T03:00:38.316Z,1.60
2022-11-28T03:03:43.259Z,1.60
2022-11-28T03:06:38.745Z,1.60
2022-11-28T03:09:26.909Z,1.50
2022-11-28T03:11:53.646Z,1.50
2022-11-28T03:14:28.060Z,1.50
2022-11-28T03:17:22.179Z,1.40
2022-11-28T03:20:16.162Z,1.40
2022-11-28T03:23:09.584Z,1.40
2022-11-28T03:25:43.498Z,1.40
2022-11-28T03:28:39.284Z,1.40
2022-11-28T03:31:22.529Z,1.60
2022-11-28T03:33:55.141Z,1.60
2022-11-28T03:36:29.311Z,1.60
2022-11-28T03:39:03.490Z,1.70
2022-11-28T03:41:46.585Z,1.70
2022-11-28T03:44:26.778Z,1.70
2022-11-28T03:46:57.067Z,1.80
2022-11-28T03:49:35.429Z,1.70
2022-11-28T03:52:05.776Z,1.70
2022-11-28T03:54:50.655Z,1.70
2022-11-28T03:57:37.581Z,1.80
2022-11-28T04:00:12.884Z,1.70
2022-11-28T04:02:55.728Z,1.60
2022-11-28T04:05:45.331Z,1.60
2022-11-28T04:08:38.545Z,1.70
2022-11-28T04:11:28.961Z,1.70
2022-11-28T04:14:05.053Z,1.60
2022-11-28T04:16:37.888Z,1.60
2022-11-28T04:19:30.601Z,1.60
2022-11-28T04:22:00.976Z,1.60
2022-11-28T04:24:33.503Z,1.60
2022-11-28T04:27:07.169Z,1.60
2022-11-28T04:29:49.777Z,1.60
2022-11-28T04:32:19.489Z,1.60
2022-11-28T04:34:52.828Z,1.50
2022-11-28T04:37:19.677Z,1.50
2022-11-28T04:39:49.081Z,1.50
2022-11-28T04:42:21.400Z,1.60
2022-11-28T04:45:05.396Z,1.50
2022-11-28T04:47:33.801Z,1.60
2022-11-28T04:50:00.977Z,1.60
2022-11-28T04:52:54.631Z,1.60
2022-11-28T04:55:55.405Z,1.60
2022-11-28T04:58:33.512Z,1.50
2022-11-28T05:01:01.779Z,1.50
2022-11-28T05:03:29.492Z,1.60
2022-11-28T05:05:56.454Z,1.60
2022-11-28T05:08:23.407Z,1.60
2022-11-28T05:10:50.483Z,1.60
2022-11-28T05:13:17.867Z,1.60
2022-11-28T05:15:44.724Z,1.60
2022-11-28T05:18:11.627Z,1.60
2022-11-28T05:20:38.833Z,1.60
2022-11-28T05:23:06.437Z,1.60
2022-11-28T05:25:33.428Z,1.60
2022-11-28T05:28:00.205Z,1.60
2022-11-28T05:30:26.944Z,1.60
2022-11-28T05:32:53.804Z,1.60
2022-11-28T05:35:20.500Z,1.70
2022-11-28T05:37:47.202Z,1.60
2022-11-28T05:40:14.022Z,1.70
2022-11-28T05:42:40.742Z,1.70
2022-11-28T05:45:08.117Z,1.60
2022-11-28T05:47:34.993Z,1.70
2022-11-28T05:50:01.761Z,1.70
2022-11-28T05:52:29.777Z,1.70
2022-11-28T05:54:56.527Z,1.70
2022-11-28T05:57:24.230Z,1.70
2022-11-28T05:59:50.954Z,1.70
2022-11-28T06:02:17.771Z,1.70
2022-11-28T06:04:44.600Z,1.70
2022-11-28T06:07:11.395Z,1.70
2022-11-28T06:09:38.150Z,1.70
2022-11-28T06:12:05.110Z,1.70
2022-11-28T06:14:32.841Z,1.70
2022-11-28T06:16:59.597Z,1.70
2022-11-28T06:19:26.384Z,1.80
2022-11-28T06:21:53.515Z,1.80
2022-11-28T06:24:20.565Z,1.70
2022-11-28T06:26:47.401Z,1.70
2022-11-28T06:29:14.118Z,1.80
2022-11-28T06:31:40.939Z,1.80
2022-11-28T06:34:07.773Z,1.80
2022-11-28T06:36:35.126Z,1.80
2022-11-28T06:39:01.981Z,1.80
2022-11-28T06:41:28.934Z,1.80
2022-11-28T06:43:56.878Z,1.80
2022-11-28T06:46:24.151Z,1.80
2022-11-28T06:48:52.183Z,1.80
2022-11-28T06:51:19.957Z,1.80
2022-11-28T06:53:46.985Z,1.90
2022-11-28T06:56:16.179Z,1.90
2022-11-28T06:58:44.117Z,1.90
2022-11-28T07:01:16.700Z,1.90
2022-11-28T07:03:44.617Z,1.90
2022-11-28T07:06:12.737Z,1.90
2022-11-28T07:08:41.064Z,1.90
2022-11-28T07:11:16.653Z,2.00
2022-11-28T07:13:48.076Z,2.00
2022-11-28T07:16:17.075Z,2.00
2022-11-28T07:18:44.984Z,2.00
2022-11-28T07:21:14.246Z,2.00
2022-11-28T07:23:44.814Z,2.10
2022-11-28T07:26:13.401Z,2.00
2022-11-28T07:28:41.412Z,2.00
2022-11-28T07:31:11.004Z,2.00
2022-11-28T07:33:42.715Z,2.00
2022-11-28T07:36:13.782Z,2.10
2022-11-28T07:38:40.538Z,2.10
2022-11-28T07:41:10.164Z,2.20
2022-11-28T07:43:37.250Z,2.30
2022-11-28T07:46:06.510Z,2.30
2022-11-28T07:48:33.677Z,2.30
2022-11-28T07:51:00.659Z,2.30
2022-11-28T07:53:27.448Z,2.30
2022-11-28T07:55:54.564Z,2.40
2022-11-28T07:58:22.122Z,2.40
2022-11-28T08:00:49.009Z,2.40
2022-11-28T08:03:15.895Z,2.40
2022-11-28T08:05:49.306Z,2.40
2022-11-28T08:08:20.259Z,2.50
2022-11-28T08:10:47.046Z,2.50
2022-11-28T08:13:14.178Z,2.60
2022-11-28T08:15:41.972Z,2.60
2022-11-28T08:18:08.785Z,2.60
2022-11-28T08:20:35.561Z,2.60
2022-11-28T08:23:02.316Z,2.70
2022-11-28T08:25:29.217Z,2.70
2022-11-28T08:27:55.977Z,2.70
2022-11-28T08:30:23.073Z,2.70
2022-11-28T08:32:50.504Z,2.70
2022-11-28T08:35:18.321Z,2.70
2022-11-28T08:37:45.129Z,2.70
2022-11-28T08:40:12.915Z,2.60
2022-11-28T08:42:39.643Z,2.60
2022-11-28T08:45:07.230Z,2.60
2022-11-28T08:47:35.398Z,2.50
2022-11-28T08:50:02.650Z,2.60
2022-11-28T08:52:29.950Z,2.60
2022-11-28T08:54:56.687Z,2.60
2022-11-28T08:57:23.472Z,2.60
2022-11-28T08:59:50.468Z,2.60
2022-11-28T09:02:19.839Z,2.60
2022-11-28T09:04:48.726Z,2.60
2022-11-28T09:07:15.545Z,2.70
2022-11-28T09:09:42.338Z,2.70
2022-11-28T09:12:09.095Z,2.80
2022-11-28T09:14:35.817Z,2.80
2022-11-28T09:17:03.050Z,2.80
2022-11-28T09:19:30.039Z,2.80
2022-11-28T09:21:58.019Z,2.80
2022-11-28T09:24:24.966Z,2.80
2022-11-28T09:26:51.721Z,2.80
2022-11-28T09:29:18.442Z,2.80
2022-11-28T09:31:47.560Z,2.90
2022-11-28T09:34:14.800Z,2.90
2022-11-28T09:36:41.892Z,2.90
2022-11-28T09:39:08.625Z,2.90
2022-11-28T09:41:47.191Z,2.90
2022-11-28T09:44:24.296Z,3.00
2022-11-28T09:46:55.377Z,3.10
2022-11-28T09:49:40.796Z,3.30
2022-11-28T09:52:26.139Z,3.30
2022-11-28T09:55:19.995Z,3.30
2022-11-28T09:57:49.386Z,3.30
2022-11-28T10:00:28.732Z,3.40
2022-11-28T10:03:33.897Z,3.40
2022-11-28T10:06:11.136Z,3.40
2022-11-28T10:09:02.586Z,3.40
2022-11-28T10:11:37.431Z,3.40
2022-11-28T10:14:31.711Z,3.40
2022-11-28T10:17:11.875Z,3.40
2022-11-28T10:19:55.154Z,3.60
2022-11-28T10:22:48.510Z,3.80
2022-11-28T10:25:36.842Z,3.90
2022-11-28T10:28:11.538Z,4.00
2022-11-28T10:30:44.439Z,4.20
2022-11-28T10:33:16.121Z,4.20
2022-11-28T10:35:47.438Z,4.30
2022-11-28T10:38:16.105Z,4.30
2022-11-28T10:40:48.962Z,4.20
2022-11-28T10:43:38.844Z,4.10
2022-11-28T10:46:14.931Z,4.30
2022-11-28T10:48:55.230Z,4.50
2022-11-28T10:51:38.258Z,4.50
2022-11-28T10:54:24.058Z,4.40
2022-11-28T10:57:17.611Z,4.50
2022-11-28T11:00:09.104Z,4.60
2022-11-28T11:02:42.957Z,4.70
2022-11-28T11:05:19.633Z,4.80
2022-11-28T11:08:22.357Z,4.90
2022-11-28T11:10:50.814Z,5.00
2022-11-28T11:13:20.757Z,5.00
2022-11-28T11:15:56.234Z,5.10
2022-11-28T11:18:38.359Z,5.00
2022-11-28T11:21:26.485Z,4.90
2022-11-28T11:24:17.490Z,4.90
2022-11-28T11:26:49.072Z,4.90
2022-11-28T11:29:22.209Z,4.90
2022-11-28T11:31:53.393Z,5.00
2022-11-28T11:34:23.298Z,5.00
2022-11-28T11:36:51.396Z,4.90
2022-11-28T11:39:25.313Z,5.00
2022-11-28T11:42:10.895Z,5.10
2022-11-28T11:44:38.493Z,5.20
2022-11-28T11:47:07.757Z,5.30
2022-11-28T11:49:43.941Z,5.30
2022-11-28T11:52:24.436Z,5.30
2022-11-28T11:54:57.175Z,5.50
2022-11-28T11:57:33.192Z,5.60
2022-11-28T12:00:08.177Z,5.60
2022-11-28T12:02:35.135Z,5.60
2022-11-28T12:05:24.868Z,5.70
2022-11-28T12:08:12.549Z,5.80
2022-11-28T12:11:26.640Z,5.70
2022-11-28T12:13:53.956Z,5.70
2022-11-28T12:16:34.811Z,5.60
2022-11-28T12:19:23.332Z,5.80
2022-11-28T12:22:26.036Z,5.70
2022-11-28T12:25:01.893Z,5.80
2022-11-28T12:27:36.628Z,5.90
2022-11-28T12:30:40.366Z,5.90
2022-11-28T12:33:30.705Z,5.90
2022-11-28T12:36:28.941Z,6.00
2022-11-28T12:38:55.631Z,6.10
2022-11-28T12:42:07.922Z,6.30
2022-11-28T12:44:46.884Z,6.30
2022-11-28T12:47:31.685Z,6.30
2022-11-28T12:50:06.996Z,6.30
2022-11-28T12:52:43.561Z,6.20
2022-11-28T12:55:23.190Z,6.40
2022-11-28T12:58:10.593Z,6.40
2022-11-28T13:00:50.570Z,6.70
2022-11-28T13:03:35.850Z,6.60
2022-11-28T13:06:04.464Z,6.80
2022-11-28T13:08:49.910Z,6.80
2022-11-28T13:11:34.527Z,6.80
2022-11-28T13:14:33.670Z,6.70
2022-11-28T13:17:35.911Z,6.50
2022-11-28T13:20:42.064Z,6.60
2022-11-28T13:23:24.634Z,6.60
2022-11-28T13:25:55.831Z,6.50
2022-11-28T13:28:31.413Z,6.30
2022-11-28T13:31:36.181Z,6.20
2022-11-28T13:34:04.105Z,6.20
2022-11-28T13:39:50.190Z,6.10
2022-11-28T13:45:31.932Z,6.00
2022-11-28T13:48:00.305Z,5.90
2022-11-28T13:50:28.558Z,5.90
2022-11-28T13:53:10.537Z,5.80
2022-11-28T13:55:41.690Z,5.80
2022-11-28T13:58:41.466Z,5.70
2022-11-28T14:01:12.994Z,5.70
2022-11-28T14:04:08.994Z,5.60
2022-11-28T14:06:44.720Z,5.50
2022-11-28T14:09:11.498Z,5.40
2022-11-28T14:11:46.303Z,5.40
2022-11-28T14:14:33.333Z,5.40
2022-11-28T14:17:09.737Z,5.20
2022-11-28T14:19:51.744Z,5.20
2022-11-28T14:22:49.490Z,5.10
2022-11-28T14:25:31.561Z,5.10
2022-11-28T14:28:05.657Z,5.00
2022-11-28T14:30:34.416Z,5.00
2022-11-28T14:33:06.200Z,4.90
2022-11-28T14:35:52.307Z,4.90
2022-11-28T14:38:30.928Z,4.90
2022-11-28T14:41:03.061Z,4.90
2022-11-28T14:43:32.795Z,4.90
2022-11-28T14:46:19.490Z,4.80
2022-11-28T14:48:58.725Z,4.80
2022-11-28T14:51:47.585Z,4.70
2022-11-28T14:54:42.652Z,4.60
2022-11-28T14:57:19.212Z,4.50
2022-11-28T14:59:46.859Z,4.40
2022-11-28T15:02:13.790Z,4.30
2022-11-28T15:04:59.469Z,4.30
2022-11-28T15:07:49.579Z,4.30
2022-11-28T15:10:51.673Z,4.20
2022-11-28T15:13:22.395Z,4.10
2022-11-28T15:15:51.335Z,4.10
2022-11-28T15:18:19.273Z,4.00
2022-11-28T15:20:53.785Z,3.90
2022-11-28T15:23:31.766Z,3.80
2022-11-28T15:26:00.277Z,3.80
2022-11-28T15:28:29.112Z,3.80
2022-11-28T15:30:57.881Z,3.70
2022-11-28T15:33:26.301Z,3.60
2022-11-28T15:36:25.946Z,3.60
2022-11-28T15:38:53.345Z,3.50
2022-11-28T15:41:25.233Z,3.40
2022-11-28T15:43:53.501Z,3.30
2022-11-28T15:46:33.305Z,3.30
2022-11-28T15:49:01.542Z,3.30
2022-11-28T15:51:32.589Z,3.20
2022-11-28T15:54:00.472Z,3.20
2022-11-28T15:56:27.192Z,3.20
2022-11-28T15:58:54.959Z,3.20
2022-11-28T16:01:26.683Z,3.10
2022-11-28T16:04:06.829Z,3.20
2022-11-28T16:06:37.095Z,3.10
2022-11-28T16:09:17.384Z,3.20
2022-11-28T16:11:49.848Z,3.10
2022-11-28T16:14:22.532Z,3.10
2022-11-28T16:16:49.578Z,3.00
2022-11-28T16:19:29.909Z,3.00
2022-11-28T16:22:00.864Z,3.00
2022-11-28T16:24:38.738Z,3.10
2022-11-28T16:27:06.228Z,3.10
2022-11-28T16:29:35.663Z,3.10
2022-11-28T16:32:21.679Z,3.00
2022-11-28T16:34:51.881Z,3.00
2022-11-28T16:37:27.555Z,3.00
2022-11-28T16:40:19.363Z,3.10
2022-11-28T16:42:53.670Z,3.10
2022-11-28T16:45:25.246Z,3.10
2022-11-28T16:48:17.004Z,3.00
2022-11-28T16:51:12.702Z,3.00
2022-11-28T16:53:45.236Z,3.00
2022-11-28T16:56:35.075Z,3.00
2022-11-28T16:59:10.952Z,3.00
2022-11-28T17:01:37.940Z,3.00
2022-11-28T17:04:05.009Z,3.00
2022-11-28T17:06:34.297Z,2.90
2022-11-28T17:09:01.907Z,3.00
2022-11-28T17:11:32.940Z,2.90
2022-11-28T17:14:02.419Z,2.90
2022-11-28T17:16:33.275Z,3.00
2022-11-28T17:19:00.169Z,3.00
2022-11-28T17:21:33.399Z,2.90
2022-11-28T17:24:01.019Z,3.00
2022-11-28T17:26:27.787Z,2.90
2022-11-28T17:28:54.545Z,2.90
2022-11-28T17:31:23.747Z,2.90
2022-11-28T17:33:50.812Z,2.90
2022-11-28T17:36:17.537Z,2.90
2022-11-28T17:38:44.504Z,2.90
2022-11-28T17:41:14.727Z,2.90
2022-11-28T17:43:41.806Z,2.80
2022-11-28T17:46:08.804Z,2.80
2022-11-28T17:48:35.663Z,2.80
2022-11-28T17:51:03.646Z,2.80
2022-11-28T17:53:30.570Z,2.80
2022-11-28T17:55:59.765Z,2.80
2022-11-28T17:58:27.206Z,2.80
2022-11-28T18:00:59.925Z,2.80
2022-11-28T18:03:27.557Z,2.80
2022-11-28T18:05:54.603Z,2.80
2022-11-28T18:08:22.238Z,2.80
2022-11-28T18:10:49.433Z,2.80
2022-11-28T18:13:17.520Z,2.90
2022-11-28T18:15:47.113Z,2.90
2022-11-28T18:18:14.059Z,2.80
2022-11-28T18:20:40.879Z,2.90
2022-11-28T18:23:10.274Z,2.90
2022-11-28T18:25:44.321Z,2.90
2022-11-28T18:28:18.416Z,2.90
2022-11-28T18:30:46.825Z,2.80
2022-11-28T18:33:15.004Z,2.80
2022-11-28T18:35:41.853Z,2.90
2022-11-28T18:38:10.708Z,2.90
2022-11-28T18:40:38.892Z,2.90
2022-11-28T18:43:05.949Z,2.90
2022-11-28T18:45:33.967Z,2.90
2022-11-28T18:48:00.786Z,2.90
2022-11-28T18:50:27.561Z,3.00
2022-11-28T18:52:54.766Z,3.00
2022-11-28T18:55:21.571Z,3.00
2022-11-28T18:57:48.408Z,3.00
2022-11-28T19:00:15.721Z,3.00
2022-11-28T19:02:42.531Z,3.10
2022-11-28T19:05:09.372Z,3.00
2022-11-28T19:07:36.184Z,3.00
2022-11-28T19:10:03.376Z,3.10
2022-11-28T19:12:31.173Z,3.00
2022-11-28T19:15:02.015Z,3.10
2022-11-28T19:17:30.421Z,3.00
2022-11-28T19:19:57.148Z,3.00
2022-11-28T19:22:23.945Z,3.10
2022-11-28T19:24:50.711Z,3.10
2022-11-28T19:27:17.490Z,3.10
2022-11-28T19:29:44.601Z,3.10
2022-11-28T19:32:12.539Z,3.00
2022-11-28T19:34:39.391Z,3.10
2022-11-28T19:37:06.413Z,3.10
2022-11-28T19:39:33.208Z,3.10
2022-11-28T19:41:59.990Z,3.10
2022-11-28T19:44:28.959Z,3.00
2022-11-28T19:46:56.300Z,3.00
2022-11-28T19:49:24.377Z,3.10
2022-11-28T19:51:52.212Z,3.00
2022-11-28T19:54:19.645Z,2.90
2022-11-28T19:56:47.462Z,3.00
2022-11-28T19:59:14.609Z,2.90
2022-11-28T20:01:41.614Z,3.00
2022-11-28T20:04:08.954Z,3.00
2022-11-28T20:06:35.944Z,3.00
2022-11-28T20:09:06.628Z,3.00
2022-11-28T20:11:36.149Z,3.00
2022-11-28T20:14:06.641Z,3.00
2022-11-28T20:16:35.486Z,2.90
2022-11-28T20:19:03.171Z,2.90
2022-11-28T20:21:30.952Z,2.90
2022-11-28T20:24:04.109Z,3.00
2022-11-28T20:26:34.349Z,3.00
2022-11-28T20:29:01.093Z,2.90
2022-11-28T20:31:33.774Z,2.90
2022-11-28T20:34:01.657Z,2.90
2022-11-28T20:36:30.498Z,2.90
2022-11-28T20:38:58.116Z,2.80
2022-11-28T20:41:25.943Z,2.80
2022-11-28T20:43:53.011Z,2.80
2022-11-28T20:46:23.171Z,2.80
2022-11-28T20:48:50.556Z,2.80
2022-11-28T20:51:24.731Z,2.90
2022-11-28T20:53:53.092Z,2.80
2022-11-28T20:56:24.948Z,2.90
2022-11-28T20:58:52.100Z,2.80
2022-11-28T21:01:21.699Z,2.80
2022-11-28T21:03:49.165Z,2.80
2022-11-28T21:06:16.287Z,2.90
2022-11-28T21:08:43.307Z,2.90
2022-11-28T21:11:36.600Z,2.90
2022-11-28T21:14:03.819Z,2.90
2022-11-28T21:16:31.676Z,2.90
2022-11-28T21:19:07.589Z,2.90
2022-11-28T21:21:36.221Z,2.80
2022-11-28T21:24:09.569Z,2.80
2022-11-28T21:26:41.037Z,2.90
2022-11-28T21:29:12.111Z,2.90
2022-11-28T21:31:42.116Z,2.90
2022-11-28T21:34:14.089Z,2.90
2022-11-28T21:36:41.003Z,2.90
2022-11-28T21:39:09.104Z,2.80
2022-11-28T21:41:35.856Z,2.80
2022-11-28T21:44:02.650Z,2.80
2022-11-28T21:46:30.278Z,2.80
2022-11-28T21:48:58.384Z,2.80
2022-11-28T21:51:25.932Z,2.80
2022-11-28T21:53:52.653Z,2.80
2022-11-28T21:56:19.784Z,2.80
2022-11-28T21:58:46.545Z,2.90
2022-11-28T22:01:14.201Z,2.80
2022-11-28T22:03:41.866Z,2.90
2022-11-28T22:06:21.536Z,2.90
2022-11-28T22:08:51.440Z,2.90
2022-11-28T22:11:22.378Z,3.00
2022-11-28T22:13:49.981Z,3.00
2022-11-28T22:16:25.232Z,3.00
2022-11-28T22:18:54.162Z,2.90
2022-11-28T22:21:50.617Z,3.00
2022-11-28T22:24:08.818Z,2.90
2022-11-28T22:26:35.840Z,3.00
2022-11-28T22:29:04.131Z,3.00
2022-11-28T22:31:31.385Z,3.00
2022-11-28T22:33:59.454Z,3.10
2022-11-28T22:36:26.368Z,3.00
2022-11-28T22:38:58.021Z,3.00
2022-11-28T22:41:29.229Z,2.90
2022-11-28T22:44:00.164Z,2.90
2022-11-28T22:46:27.366Z,3.00
2022-11-28T22:48:54.080Z,3.00
2022-11-28T22:51:24.159Z,3.00
2022-11-28T22:53:55.379Z,3.00
2022-11-28T22:56:22.704Z,3.00
2022-11-28T22:58:49.643Z,3.00
2022-11-28T23:01:22.326Z,3.00
2022-11-28T23:03:49.607Z,3.00
2022-11-28T23:06:21.845Z,3.10
2022-11-28T23:08:48.879Z,3.00
2022-11-28T23:11:22.510Z,3.10
2022-11-28T23:13:50.065Z,3.10
2022-11-28T23:16:20.081Z,3.10
2022-11-28T23:18:49.318Z,3.10
2022-11-28T23:21:17.482Z,3.00
2022-11-28T23:23:45.735Z,3.00
2022-11-28T23:26:16.478Z,3.10
2022-11-28T23:28:43.876Z,3.10
2022-11-28T23:31:18.732Z,3.10
2022-11-28T23:33:47.018Z,3.10
2022-11-28T23:36:18.326Z,3.10
2022-11-28T23:38:46.314Z,3.10
2022-11-28T23:41:13.692Z,3.10
2022-11-28T23:43:40.868Z,3.10
2022-11-28T23:46:08.979Z,3.10
2022-11-28T23:48:35.838Z,3.10
2022-11-28T23:51:03.564Z,3.10
2022-11-28T23:53:30.350Z,3.10
2022-11-28T23:56:06.147Z,3.00
2022-11-28T23:58:34.058Z,3.00
